Time;durP1;ratioP1;P1;durP2;ratioP2;P2;SDS_P1;SDS_P2;PMS_P1;PMS_P2;Temp;Humidity;BMP_temperature;BMP_pressure;BME280_temperature;BME280_humidity;BME280_pressure;Samples;Min_cycle;Max_cycle;Signal;HPM_P1;HPM_P2
2022/08/21 00:01:23;;;;;;;6.85;4.50;;;;;;;;;;5028005;28;20185;-64
2022/08/21 00:03:49;;;;;;;7.15;4.80;;;;;;;;;;5024262;28;20186;-64
2022/08/21 00:06:14;;;;;;;10.95;5.55;;;;;;;;;;5026691;28;20185;-64
2022/08/21 00:08:40;;;;;;;9.98;5.05;;;;;;;;;;5032635;28;20201;-64
2022/08/21 00:11:06;;;;;;;10.75;4.47;;;;;;;;;;5028982;28;20321;-63
2022/08/21 00:13:32;;;;;;;10.57;5.30;;;;;;;;;;5029176;28;20209;-63
2022/08/21 00:15:58;;;;;;;6.38;5.00;;;;;;;;;;5026583;28;20253;-64
2022/08/21 00:18:24;;;;;;;14.77;7.10;;;;;;;;;;5029056;28;20807;-63
2022/08/21 00:20:49;;;;;;;13.43;6.53;;;;;;;;;;5024611;28;20198;-63
2022/08/21 00:23:16;;;;;;;9.90;6.45;;;;;;;;;;5028553;28;20178;-63
2022/08/21 00:25:42;;;;;;;12.60;7.53;;;;;;;;;;5024646;28;20257;-63
2022/08/21 00:28:08;;;;;;;14.10;7.78;;;;;;;;;;5028673;28;20593;-63
2022/08/21 00:30:34;;;;;;;11.32;7.03;;;;;;;;;;5026608;28;20170;-64
2022/08/21 00:33:00;;;;;;;11.00;7.13;;;;;;;;;;5037173;28;20201;-64
2022/08/21 00:35:29;;;;;;;12.57;7.38;;;;;;;;;;5018037;28;20178;-64
2022/08/21 00:37:56;;;;;;;11.68;7.60;;;;;;;;;;5029494;28;20170;-64
2022/08/21 00:40:26;;;;;;;11.00;7.50;;;;;;;;;;5028093;28;20182;-64
2022/08/21 00:42:51;;;;;;;12.52;6.57;;;;;;;;;;5029267;28;20186;-64
2022/08/21 00:45:17;;;;;;;10.23;6.97;;;;;;;;;;5028147;28;20232;-64
2022/08/21 00:47:42;;;;;;;12.77;7.30;;;;;;;;;;5028383;28;20261;-64
2022/08/21 00:50:10;;;;;;;13.45;7.35;;;;;;;;;;5025177;28;20190;-64
2022/08/21 00:52:37;;;;;;;10.73;7.38;;;;;;;;;;5028444;28;20186;-64
2022/08/21 00:55:06;;;;;;;12.38;7.88;;;;;;;;;;5021403;28;20186;-64
2022/08/21 00:57:39;;;;;;;10.52;7.25;;;;;;;;;;5028799;28;20588;-64
2022/08/21 01:00:08;;;;;;;14.10;7.38;;;;;;;;;;5014784;28;20274;-64
2022/08/21 01:02:33;;;;;;;13.80;7.80;;;;;;;;;;5015320;28;20693;-63
2022/08/21 01:04:59;;;;;;;14.57;7.20;;;;;;;;;;5028644;28;20170;-65
2022/08/21 01:07:24;;;;;;;13.75;7.30;;;;;;;;;;5029681;28;20221;-64
2022/08/21 01:09:51;;;;;;;15.52;8.60;;;;;;;;;;5038511;28;20173;-64
2022/08/21 01:12:17;;;;;;;13.82;8.02;;;;;;;;;;5022916;28;20182;-64
2022/08/21 01:14:43;;;;;;;16.67;9.13;;;;;;;;;;5026982;28;20259;-64
2022/08/21 01:17:11;;;;;;;16.45;8.93;;;;;;;;;;5028576;28;20177;-64
2022/08/21 01:19:36;;;;;;;11.43;8.32;;;;;;;;;;5028426;28;20177;-63
2022/08/21 01:22:02;;;;;;;11.80;8.23;;;;;;;;;;5024225;28;20186;-63
2022/08/21 01:24:27;;;;;;;14.30;7.65;;;;;;;;;;5025806;28;20779;-64
2022/08/21 01:26:53;;;;;;;12.85;8.07;;;;;;;;;;5018625;28;20573;-64
2022/08/21 01:29:38;;;;;;;8.80;7.45;;;;;;;;;;5028357;28;20174;-64
2022/08/21 01:32:09;;;;;;;11.80;7.70;;;;;;;;;;5030023;28;20212;-64
2022/08/21 01:34:37;;;;;;;13.10;8.40;;;;;;;;;;5031742;28;20316;-64
2022/08/21 01:37:03;;;;;;;16.02;8.88;;;;;;;;;;5018458;28;20178;-66
2022/08/21 01:39:29;;;;;;;17.90;9.30;;;;;;;;;;5031746;28;20201;-66
2022/08/21 01:41:54;;;;;;;13.63;9.30;;;;;;;;;;5025241;28;20268;-66
2022/08/21 01:44:21;;;;;;;17.85;9.57;;;;;;;;;;5024590;28;20189;-66
2022/08/21 01:46:47;;;;;;;14.45;9.88;;;;;;;;;;5031524;28;20201;-64
2022/08/21 01:49:13;;;;;;;12.70;8.65;;;;;;;;;;5032057;28;20236;-63
2022/08/21 01:51:39;;;;;;;14.52;8.98;;;;;;;;;;5022252;28;20194;-64
2022/08/21 01:54:04;;;;;;;11.63;9.00;;;;;;;;;;5031927;28;20389;-63
2022/08/21 01:56:36;;;;;;;11.15;8.02;;;;;;;;;;5018429;28;20186;-64
2022/08/21 01:59:02;;;;;;;10.93;8.20;;;;;;;;;;5020481;28;20174;-64
2022/08/21 02:01:27;;;;;;;12.25;8.35;;;;;;;;;;5021267;28;20182;-64
2022/08/21 02:03:52;;;;;;;11.45;8.63;;;;;;;;;;5031956;28;20645;-64
2022/08/21 02:06:17;;;;;;;15.30;9.00;;;;;;;;;;5020122;28;20630;-64
2022/08/21 02:08:43;;;;;;;13.25;9.38;;;;;;;;;;5028945;28;20236;-64
2022/08/21 02:11:09;;;;;;;13.40;9.30;;;;;;;;;;5014580;28;20186;-64
2022/08/21 02:13:34;;;;;;;15.63;9.52;;;;;;;;;;5030489;28;20645;-64
2022/08/21 02:15:59;;;;;;;10.98;9.60;;;;;;;;;;5022144;28;20194;-64
2022/08/21 02:18:25;;;;;;;16.73;9.85;;;;;;;;;;5026568;28;20583;-64
2022/08/21 02:20:50;;;;;;;15.00;9.60;;;;;;;;;;5023573;28;20217;-64
2022/08/21 02:23:16;;;;;;;12.73;9.23;;;;;;;;;;5024802;28;20202;-64
2022/08/21 02:25:41;;;;;;;15.63;10.05;;;;;;;;;;5023910;28;20229;-64
2022/08/21 02:28:11;;;;;;;13.48;10.00;;;;;;;;;;5024529;28;20209;-64
2022/08/21 02:30:41;;;;;;;17.50;10.65;;;;;;;;;;5026082;28;20194;-64
2022/08/21 02:33:09;;;;;;;17.00;10.20;;;;;;;;;;5038767;28;20205;-64
2022/08/21 02:35:34;;;;;;;14.38;9.73;;;;;;;;;;5030433;28;20680;-64
2022/08/21 02:38:03;;;;;;;15.68;10.15;;;;;;;;;;5031306;28;20190;-64
2022/08/21 02:40:32;;;;;;;13.77;9.65;;;;;;;;;;5030442;28;20622;-64
2022/08/21 02:43:03;;;;;;;15.90;10.38;;;;;;;;;;5030468;28;20189;-64
2022/08/21 02:45:29;;;;;;;13.40;10.32;;;;;;;;;;5024622;28;20270;-64
2022/08/21 02:48:01;;;;;;;15.45;10.55;;;;;;;;;;5030224;28;20288;-64
2022/08/21 02:50:31;;;;;;;18.13;10.63;;;;;;;;;;5027679;28;20588;-64
2022/08/21 02:52:57;;;;;;;16.88;10.52;;;;;;;;;;5012624;28;20174;-64
2022/08/21 02:55:26;;;;;;;12.80;10.30;;;;;;;;;;5021861;28;20712;-64
2022/08/21 02:57:52;;;;;;;14.10;9.55;;;;;;;;;;5029603;28;20173;-64
2022/08/21 03:00:19;;;;;;;11.73;9.98;;;;;;;;;;5029514;28;20197;-64
2022/08/21 03:02:46;;;;;;;14.55;10.73;;;;;;;;;;5026898;28;20182;-64
2022/08/21 03:05:12;;;;;;;14.10;10.30;;;;;;;;;;5022781;28;20171;-64
2022/08/21 03:07:38;;;;;;;17.17;11.07;;;;;;;;;;5027968;28;20212;-64
2022/08/21 03:10:05;;;;;;;16.05;11.20;;;;;;;;;;5031249;28;20210;-63
2022/08/21 03:12:31;;;;;;;17.65;11.02;;;;;;;;;;5011458;28;20218;-64
2022/08/21 03:14:57;;;;;;;13.85;11.30;;;;;;;;;;5027564;28;20204;-64
2022/08/21 03:17:23;;;;;;;13.70;10.45;;;;;;;;;;5024684;28;20182;-64
2022/08/21 03:19:49;;;;;;;13.25;10.07;;;;;;;;;;5029816;28;20182;-64
2022/08/21 03:22:14;;;;;;;15.43;11.40;;;;;;;;;;5023860;28;20514;-65
2022/08/21 03:24:39;;;;;;;12.68;10.40;;;;;;;;;;5029209;28;20309;-64
2022/08/21 03:27:05;;;;;;;14.70;10.65;;;;;;;;;;5023162;28;20201;-64
2022/08/21 03:29:30;;;;;;;13.25;10.43;;;;;;;;;;5029929;28;20170;-64
2022/08/21 03:31:55;;;;;;;14.10;10.82;;;;;;;;;;5033180;28;20707;-64
2022/08/21 03:34:21;;;;;;;16.52;10.98;;;;;;;;;;5030335;28;20197;-64
2022/08/21 03:36:47;;;;;;;15.55;10.00;;;;;;;;;;5028468;28;20573;-64
2022/08/21 03:39:12;;;;;;;15.40;10.80;;;;;;;;;;5029809;28;20180;-64
2022/08/21 03:41:38;;;;;;;18.17;11.20;;;;;;;;;;5019101;28;20349;-64
2022/08/21 03:44:03;;;;;;;20.27;12.02;;;;;;;;;;5026155;28;20174;-64
2022/08/21 03:46:28;;;;;;;16.35;12.05;;;;;;;;;;5020846;28;20187;-64
2022/08/21 03:48:55;;;;;;;15.80;10.93;;;;;;;;;;5022805;28;20243;-64
2022/08/21 03:51:20;;;;;;;13.35;11.52;;;;;;;;;;5022235;28;20270;-64
2022/08/21 03:53:46;;;;;;;14.75;11.40;;;;;;;;;;5009631;28;20282;-64
2022/08/21 03:56:11;;;;;;;17.77;12.10;;;;;;;;;;5027277;28;20181;-64
2022/08/21 03:58:38;;;;;;;14.60;11.02;;;;;;;;;;5028724;28;20170;-64
2022/08/21 04:01:06;;;;;;;18.42;11.63;;;;;;;;;;5024884;28;20214;-64
2022/08/21 04:03:33;;;;;;;17.83;12.23;;;;;;;;;;5028439;28;20262;-64
2022/08/21 04:05:59;;;;;;;17.17;12.45;;;;;;;;;;5027329;28;20320;-64
2022/08/21 04:08:24;;;;;;;16.30;13.57;;;;;;;;;;5032450;28;20198;-64
2022/08/21 04:10:53;;;;;;;21.10;14.48;;;;;;;;;;5028659;28;20260;-64
2022/08/21 04:13:19;;;;;;;19.75;13.57;;;;;;;;;;5016256;28;20657;-64
2022/08/21 04:15:45;;;;;;;18.27;13.80;;;;;;;;;;5027672;28;20546;-64
2022/08/21 04:18:10;;;;;;;19.67;14.07;;;;;;;;;;5026874;28;20178;-64
2022/08/21 04:20:35;;;;;;;20.95;13.63;;;;;;;;;;5028505;28;20705;-64
2022/08/21 04:23:03;;;;;;;16.73;13.10;;;;;;;;;;5027536;28;20268;-65
2022/08/21 04:25:28;;;;;;;17.60;13.90;;;;;;;;;;5028252;28;20313;-64
2022/08/21 04:27:54;;;;;;;18.02;14.35;;;;;;;;;;5024268;28;20352;-64
2022/08/21 04:30:20;;;;;;;16.05;13.57;;;;;;;;;;5028034;28;20185;-64
2022/08/21 04:32:48;;;;;;;18.20;13.65;;;;;;;;;;5025505;28;20248;-64
2022/08/21 04:35:15;;;;;;;19.92;13.82;;;;;;;;;;5028120;28;20170;-65
2022/08/21 04:37:41;;;;;;;21.08;14.55;;;;;;;;;;5024378;28;20316;-64
2022/08/21 04:40:08;;;;;;;18.60;14.30;;;;;;;;;;5014953;28;20253;-64
2022/08/21 04:42:44;;;;;;;19.88;15.23;;;;;;;;;;5018857;28;20598;-64
2022/08/21 04:45:09;;;;;;;20.85;15.35;;;;;;;;;;5026979;28;20208;-64
2022/08/21 04:47:35;;;;;;;20.67;13.93;;;;;;;;;;5015357;28;20300;-64
2022/08/21 04:50:00;;;;;;;18.48;14.68;;;;;;;;;;5029045;28;20178;-64
2022/08/21 04:52:25;;;;;;;19.38;14.25;;;;;;;;;;5017205;28;20662;-64
2022/08/21 04:54:51;;;;;;;20.20;14.13;;;;;;;;;;5028517;28;20323;-64
2022/08/21 04:57:18;;;;;;;20.83;14.25;;;;;;;;;;5016501;28;20278;-64
2022/08/21 04:59:50;;;;;;;22.13;15.25;;;;;;;;;;5028033;28;20196;-64
2022/08/21 05:02:15;;;;;;;19.00;13.30;;;;;;;;;;5017697;28;20221;-64
2022/08/21 05:04:45;;;;;;;16.20;14.50;;;;;;;;;;5027551;28;20566;-64
2022/08/21 05:07:16;;;;;;;17.95;14.77;;;;;;;;;;5029029;28;20575;-64
2022/08/21 05:09:42;;;;;;;19.27;14.73;;;;;;;;;;5028465;28;20174;-64
2022/08/21 05:12:07;;;;;;;21.23;14.98;;;;;;;;;;5022641;28;20660;-64
2022/08/21 05:14:33;;;;;;;17.15;15.00;;;;;;;;;;5031293;28;20212;-64
2022/08/21 05:16:58;;;;;;;21.80;14.70;;;;;;;;;;5023720;28;20179;-64
2022/08/21 05:19:24;;;;;;;21.90;15.40;;;;;;;;;;5025929;28;20181;-64
2022/08/21 05:21:49;;;;;;;18.65;15.02;;;;;;;;;;5031567;28;20616;-64
2022/08/21 05:24:15;;;;;;;21.38;15.35;;;;;;;;;;5032220;28;20306;-64
2022/08/21 05:26:41;;;;;;;17.42;13.98;;;;;;;;;;5030872;28;20622;-64
2022/08/21 05:29:06;;;;;;;18.42;15.52;;;;;;;;;;5032368;28;20174;-64
2022/08/21 05:31:32;;;;;;;23.52;14.63;;;;;;;;;;5035210;28;20539;-64
2022/08/21 05:33:57;;;;;;;19.58;15.20;;;;;;;;;;5025914;28;20182;-64
2022/08/21 05:36:23;;;;;;;21.30;15.73;;;;;;;;;;5029693;28;20656;-64
2022/08/21 05:38:48;;;;;;;21.55;15.13;;;;;;;;;;5021707;28;20182;-65
2022/08/21 05:41:14;;;;;;;16.88;14.75;;;;;;;;;;5030461;28;20182;-64
2022/08/21 05:43:39;;;;;;;20.85;15.77;;;;;;;;;;5031683;28;20197;-64
2022/08/21 05:46:06;;;;;;;19.33;15.02;;;;;;;;;;5032022;28;20200;-64
2022/08/21 05:48:33;;;;;;;22.08;14.93;;;;;;;;;;5024295;28;20194;-64
2022/08/21 05:51:07;;;;;;;18.63;14.75;;;;;;;;;;5031243;28;20232;-65
2022/08/21 05:53:33;;;;;;;19.70;15.32;;;;;;;;;;5030206;28;20209;-64
2022/08/21 05:55:58;;;;;;;18.63;14.27;;;;;;;;;;5031437;28;20734;-65
2022/08/21 05:58:24;;;;;;;20.02;14.73;;;;;;;;;;5031171;28;20189;-65
2022/08/21 06:00:50;;;;;;;21.98;14.98;;;;;;;;;;5031574;28;20221;-65
2022/08/21 06:03:28;;;;;;;19.90;13.80;;;;;;;;;;5031059;28;20641;-65
2022/08/21 06:05:55;;;;;;;18.08;12.48;;;;;;;;;;5031042;28;20213;-65
2022/08/21 06:08:21;;;;;;;14.77;10.77;;;;;;;;;;5033024;28;20225;-64
2022/08/21 06:10:47;;;;;;;15.65;10.88;;;;;;;;;;5031768;28;20178;-64
2022/08/21 06:13:14;;;;;;;13.75;9.75;;;;;;;;;;5028405;28;20560;-63
2022/08/21 06:15:39;;;;;;;14.50;9.65;;;;;;;;;;5030886;28;20680;-62
2022/08/21 06:18:05;;;;;;;15.70;9.82;;;;;;;;;;5030318;28;20174;-63
2022/08/21 06:20:31;;;;;;;12.00;9.88;;;;;;;;;;5030419;28;20209;-63
2022/08/21 06:22:57;;;;;;;15.75;10.70;;;;;;;;;;5027205;28;20220;-63
2022/08/21 06:25:22;;;;;;;14.70;10.63;;;;;;;;;;5030965;28;20611;-63
2022/08/21 06:27:48;;;;;;;15.65;9.68;;;;;;;;;;5024820;28;20232;-63
2022/08/21 06:30:14;;;;;;;13.77;9.80;;;;;;;;;;5023827;28;20682;-63
2022/08/21 06:32:39;;;;;;;15.07;10.27;;;;;;;;;;5036027;28;20220;-63
2022/08/21 06:35:06;;;;;;;14.18;10.35;;;;;;;;;;5030976;28;20253;-63
2022/08/21 06:37:33;;;;;;;14.07;10.20;;;;;;;;;;5030232;28;20243;-63
2022/08/21 06:39:58;;;;;;;16.70;9.40;;;;;;;;;;5030536;28;20174;-63
2022/08/21 06:42:24;;;;;;;13.48;9.57;;;;;;;;;;5029494;28;20514;-65
2022/08/21 06:44:49;;;;;;;18.13;9.02;;;;;;;;;;5031450;28;20235;-63
2022/08/21 06:47:14;;;;;;;18.55;9.27;;;;;;;;;;5026251;28;20213;-63
2022/08/21 06:49:40;;;;;;;15.55;9.05;;;;;;;;;;5022856;28;20171;-63
2022/08/21 06:52:11;;;;;;;13.55;9.55;;;;;;;;;;5021604;28;20693;-63
2022/08/21 06:54:37;;;;;;;15.43;9.23;;;;;;;;;;5010848;28;20187;-63
2022/08/21 06:57:03;;;;;;;13.95;9.35;;;;;;;;;;5015718;28;20183;-63
2022/08/21 06:59:29;;;;;;;11.30;7.72;;;;;;;;;;5023611;28;20186;-63
2022/08/21 07:01:54;;;;;;;13.25;7.65;;;;;;;;;;5028666;28;20535;-62
2022/08/21 07:04:20;;;;;;;11.25;8.15;;;;;;;;;;5013581;28;20202;-63
2022/08/21 07:06:45;;;;;;;10.48;8.25;;;;;;;;;;5030843;28;20273;-62
2022/08/21 07:09:11;;;;;;;10.95;8.05;;;;;;;;;;5032001;28;20204;-62
2022/08/21 07:11:37;;;;;;;12.73;8.77;;;;;;;;;;5030440;28;20641;-62
2022/08/21 07:14:02;;;;;;;13.25;7.95;;;;;;;;;;5024663;28;20178;-63
2022/08/21 07:16:28;;;;;;;18.23;9.48;;;;;;;;;;5029286;28;20266;-62
2022/08/21 07:18:53;;;;;;;10.40;7.95;;;;;;;;;;5024041;28;20178;-62
2022/08/21 07:21:18;;;;;;;12.23;8.85;;;;;;;;;;5015696;28;20349;-64
2022/08/21 07:23:47;;;;;;;14.18;8.32;;;;;;;;;;5022260;28;20178;-65
2022/08/21 07:26:15;;;;;;;12.30;8.98;;;;;;;;;;5029644;28;20184;-62
2022/08/21 07:28:41;;;;;;;11.90;8.40;;;;;;;;;;5028365;28;20200;-62
2022/08/21 07:31:09;;;;;;;12.55;8.57;;;;;;;;;;5034212;28;20178;-63
2022/08/21 07:33:35;;;;;;;14.40;9.48;;;;;;;;;;5027030;28;20198;-63
2022/08/21 07:36:01;;;;;;;13.68;8.77;;;;;;;;;;5029258;28;20193;-62
2022/08/21 07:38:27;;;;;;;11.07;7.20;;;;;;;;;;5029880;28;20174;-63
2022/08/21 07:40:55;;;;;;;12.80;7.75;;;;;;;;;;5029781;28;20672;-62
2022/08/21 07:43:21;;;;;;;16.02;7.60;;;;;;;;;;5024063;28;20178;-62
2022/08/21 07:45:49;;;;;;;13.55;7.93;;;;;;;;;;5026870;28;20199;-63
2022/08/21 07:48:14;;;;;;;12.40;7.95;;;;;;;;;;5019830;28;20205;-62
2022/08/21 07:50:40;;;;;;;14.15;7.60;;;;;;;;;;5029571;28;20182;-64
2022/08/21 07:53:07;;;;;;;10.00;8.05;;;;;;;;;;5028614;28;20178;-64
2022/08/21 07:55:32;;;;;;;10.35;6.97;;;;;;;;;;5029632;28;20320;-64
2022/08/21 07:57:58;;;;;;;9.32;6.50;;;;;;;;;;5028056;28;20336;-64
2022/08/21 08:00:25;;;;;;;11.23;6.30;;;;;;;;;;5017765;28;20178;-63
2022/08/21 08:02:52;;;;;;;12.13;7.20;;;;;;;;;;5025442;28;20258;-64
2022/08/21 08:05:21;;;;;;;14.23;6.93;;;;;;;;;;5029712;28;20776;-64
2022/08/21 08:07:47;;;;;;;10.35;5.68;;;;;;;;;;5026922;28;20217;-64
2022/08/21 08:10:13;;;;;;;10.35;6.05;;;;;;;;;;5029690;28;20208;-64
2022/08/21 08:12:40;;;;;;;12.40;6.95;;;;;;;;;;5025754;28;20559;-62
2022/08/21 08:15:09;;;;;;;12.23;7.22;;;;;;;;;;5029300;28;20174;-62
2022/08/21 08:17:34;;;;;;;10.48;6.70;;;;;;;;;;5025916;28;20188;-62
2022/08/21 08:20:00;;;;;;;9.48;6.30;;;;;;;;;;5017413;28;20178;-62
2022/08/21 08:22:26;;;;;;;10.48;6.38;;;;;;;;;;5027596;28;20185;-62
2022/08/21 08:24:53;;;;;;;15.00;6.65;;;;;;;;;;5025645;28;20230;-62
2022/08/21 08:27:19;;;;;;;9.70;6.38;;;;;;;;;;5029682;28;20285;-64
2022/08/21 08:29:45;;;;;;;13.60;6.97;;;;;;;;;;5028617;28;20554;-62
2022/08/21 08:32:10;;;;;;;11.70;7.80;;;;;;;;;;5028805;28;20201;-62
2022/08/21 08:34:37;;;;;;;12.77;7.75;;;;;;;;;;5024305;28;20186;-62
2022/08/21 08:37:04;;;;;;;14.02;8.82;;;;;;;;;;5028871;28;20223;-62
2022/08/21 08:39:30;;;;;;;11.52;7.25;;;;;;;;;;5026226;28;20379;-62
2022/08/21 08:42:15;;;;;;;11.95;7.25;;;;;;;;;;5028829;28;20205;-62
2022/08/21 08:44:41;;;;;;;12.85;7.43;;;;;;;;;;5026834;28;20186;-62
2022/08/21 08:47:10;;;;;;;9.23;7.00;;;;;;;;;;5028251;28;20264;-62
2022/08/21 08:49:42;;;;;;;16.70;6.97;;;;;;;;;;5018144;28;20182;-62
2022/08/21 08:52:30;;;;;;;11.10;6.75;;;;;;;;;;5025650;28;20205;-62
2022/08/21 08:55:16;;;;;;;12.23;6.43;;;;;;;;;;5017815;28;20186;-63
2022/08/21 08:57:45;;;;;;;13.48;6.07;;;;;;;;;;5028325;28;20174;-65
2022/08/21 09:00:13;;;;;;;11.98;5.55;;;;;;;;;;5019138;28;20189;-62
2022/08/21 09:02:40;;;;;;;13.98;5.03;;;;;;;;;;5027708;28;20186;-62
2022/08/21 09:05:07;;;;;;;8.73;4.55;;;;;;;;;;5018103;28;20194;-63
2022/08/21 09:07:41;;;;;;;9.77;4.80;;;;;;;;;;5031021;28;20209;-62
2022/08/21 09:10:17;;;;;;;8.45;4.85;;;;;;;;;;5029761;28;20178;-64
2022/08/21 09:13:14;;;;;;;11.75;5.07;;;;;;;;;;5026825;28;20189;-64
2022/08/21 09:16:21;;;;;;;10.77;5.53;;;;;;;;;;5021113;28;20202;-62
2022/08/21 09:19:05;;;;;;;10.75;4.97;;;;;;;;;;5018567;28;20178;-62
2022/08/21 09:21:49;;;;;;;12.63;5.05;;;;;;;;;;5028570;28;20269;-63
2022/08/21 09:24:47;;;;;;;13.07;5.00;;;;;;;;;;5028591;28;20252;-62
2022/08/21 09:27:15;;;;;;;11.93;5.10;;;;;;;;;;5017646;28;20198;-62
2022/08/21 09:29:44;;;;;;;11.63;5.43;;;;;;;;;;5028829;28;20182;-64
2022/08/21 09:32:18;;;;;;;11.70;5.50;;;;;;;;;;5034001;28;20682;-63
2022/08/21 09:34:57;;;;;;;10.48;4.82;;;;;;;;;;5022760;28;20240;-63
2022/08/21 09:37:22;;;;;;;13.35;5.10;;;;;;;;;;5028924;28;20178;-63
2022/08/21 09:39:48;;;;;;;12.38;4.50;;;;;;;;;;5015324;28;20728;-63
2022/08/21 09:42:22;;;;;;;14.27;4.80;;;;;;;;;;5028498;28;20204;-62
2022/08/21 09:44:48;;;;;;;7.75;4.32;;;;;;;;;;5022171;28;20173;-62
2022/08/21 09:47:13;;;;;;;10.52;5.07;;;;;;;;;;5027566;28;20259;-62
2022/08/21 09:49:42;;;;;;;12.13;5.18;;;;;;;;;;5021107;28;20201;-62
2022/08/21 09:52:21;;;;;;;9.80;5.47;;;;;;;;;;5021135;28;20626;-62
2022/08/21 09:54:51;;;;;;;9.93;4.93;;;;;;;;;;5019853;28;20319;-62
2022/08/21 09:57:38;;;;;;;11.07;5.05;;;;;;;;;;5017820;28;20194;-63
2022/08/21 10:00:22;;;;;;;11.25;4.70;;;;;;;;;;5023520;28;20190;-62
2022/08/21 10:02:48;;;;;;;10.55;4.40;;;;;;;;;;5031989;28;20178;-62
2022/08/21 10:05:23;;;;;;;12.10;4.60;;;;;;;;;;5022974;28;20190;-63
2022/08/21 10:07:49;;;;;;;8.93;4.63;;;;;;;;;;5033431;28;20229;-63
2022/08/21 10:10:20;;;;;;;9.77;5.20;;;;;;;;;;5031613;28;20575;-65
2022/08/21 10:12:59;;;;;;;10.88;4.00;;;;;;;;;;5030652;28;20755;-63
2022/08/21 10:15:55;;;;;;;8.30;4.30;;;;;;;;;;5032016;28;20178;-63
2022/08/21 10:18:39;;;;;;;7.35;3.85;;;;;;;;;;5027902;28;20174;-62
2022/08/21 10:21:21;;;;;;;8.73;4.10;;;;;;;;;;5025691;28;20210;-62
2022/08/21 10:24:00;;;;;;;9.32;3.83;;;;;;;;;;5028464;28;20193;-63
2022/08/21 10:27:03;;;;;;;6.55;3.88;;;;;;;;;;5030204;28;20186;-63
2022/08/21 10:29:34;;;;;;;7.22;3.42;;;;;;;;;;5029402;28;20186;-63
2022/08/21 10:32:13;;;;;;;6.85;3.50;;;;;;;;;;5037581;28;20607;-62
2022/08/21 10:34:47;;;;;;;7.32;3.60;;;;;;;;;;5027035;28;20248;-63
2022/08/21 10:37:31;;;;;;;12.38;3.78;;;;;;;;;;5018640;28;20681;-63
2022/08/21 10:40:15;;;;;;;7.20;3.20;;;;;;;;;;5030651;28;20182;-63
2022/08/21 10:43:17;;;;;;;7.63;3.05;;;;;;;;;;5031152;28;20517;-63
2022/08/21 10:46:11;;;;;;;7.55;2.78;;;;;;;;;;5019943;28;20700;-63
2022/08/21 10:48:47;;;;;;;6.50;2.65;;;;;;;;;;5024801;28;20208;-63
2022/08/21 10:51:23;;;;;;;10.93;3.53;;;;;;;;;;5017302;28;20174;-63
2022/08/21 10:53:55;;;;;;;12.68;3.00;;;;;;;;;;5026905;28;20197;-63
2022/08/21 10:56:40;;;;;;;5.90;2.40;;;;;;;;;;5017818;28;20265;-63
2022/08/21 10:59:25;;;;;;;7.55;2.67;;;;;;;;;;5025111;28;20181;-62
2022/08/21 11:02:15;;;;;;;8.88;2.47;;;;;;;;;;5020967;28;20209;-63
2022/08/21 11:05:18;;;;;;;4.47;1.85;;;;;;;;;;5014457;28;20182;-63
2022/08/21 11:07:51;;;;;;;5.53;1.80;;;;;;;;;;5029706;28;20216;-63
2022/08/21 11:10:25;;;;;;;4.70;2.05;;;;;;;;;;5018506;28;20238;-63
2022/08/21 11:13:13;;;;;;;5.97;2.20;;;;;;;;;;5030092;28;20240;-63
2022/08/21 11:15:54;;;;;;;6.47;1.85;;;;;;;;;;5022357;28;20178;-63
2022/08/21 11:18:34;;;;;;;4.22;1.63;;;;;;;;;;5029404;28;20200;-63
2022/08/21 11:21:11;;;;;;;4.47;1.70;;;;;;;;;;5028923;28;20190;-64
2022/08/21 11:23:43;;;;;;;5.25;2.00;;;;;;;;;;5015591;28;20181;-63
2022/08/21 11:26:35;;;;;;;7.90;2.10;;;;;;;;;;5024159;28;20521;-63
2022/08/21 11:29:19;;;;;;;4.45;1.55;;;;;;;;;;5014724;28;20612;-63
2022/08/21 11:32:06;;;;;;;6.03;1.80;;;;;;;;;;5032115;28;20441;-63
2022/08/21 11:34:58;;;;;;;7.38;1.63;;;;;;;;;;5021664;28;20190;-63
2022/08/21 11:37:50;;;;;;;6.82;1.67;;;;;;;;;;5018076;28;20232;-63
2022/08/21 11:40:51;;;;;;;5.30;1.42;;;;;;;;;;5016370;28;20188;-63
2022/08/21 11:43:36;;;;;;;5.32;1.60;;;;;;;;;;5020452;28;20189;-63
2022/08/21 11:46:25;;;;;;;10.02;1.88;;;;;;;;;;5028811;28;20693;-63
2022/08/21 11:49:06;;;;;;;5.03;1.80;;;;;;;;;;5028732;28;20249;-63
2022/08/21 11:52:03;;;;;;;5.28;1.45;;;;;;;;;;5028361;28;20182;-63
2022/08/21 11:54:49;;;;;;;3.65;1.50;;;;;;;;;;5027253;28;20182;-64
2022/08/21 11:57:35;;;;;;;6.25;1.77;;;;;;;;;;5029735;28;20297;-63
2022/08/21 12:00:25;;;;;;;9.45;1.70;;;;;;;;;;5019181;28;20186;-63
2022/08/21 12:02:55;;;;;;;5.20;1.52;;;;;;;;;;5027511;28;20178;-64
2022/08/21 12:05:29;;;;;;;7.05;1.50;;;;;;;;;;5021952;28;20178;-63
2022/08/21 12:08:05;;;;;;;8.50;1.63;;;;;;;;;;5031384;28;20228;-63
2022/08/21 12:10:39;;;;;;;3.83;1.23;;;;;;;;;;5026552;28;20216;-64
2022/08/21 12:13:30;;;;;;;4.85;1.60;;;;;;;;;;5025131;28;20187;-63
2022/08/21 12:16:10;;;;;;;6.40;1.60;;;;;;;;;;5024682;28;20189;-63
2022/08/21 12:18:37;;;;;;;6.68;1.95;;;;;;;;;;5016762;28;20181;-63
2022/08/21 12:21:22;;;;;;;5.28;1.63;;;;;;;;;;5023367;28;20185;-63
2022/08/21 12:24:14;;;;;;;7.82;2.00;;;;;;;;;;5028458;28;20200;-63
2022/08/21 12:26:51;;;;;;;3.95;1.63;;;;;;;;;;5014082;28;20641;-63
2022/08/21 12:29:25;;;;;;;7.82;1.60;;;;;;;;;;5017544;28;20240;-63
2022/08/21 12:31:54;;;;;;;6.38;1.70;;;;;;;;;;5032880;28;20673;-63
2022/08/21 12:34:25;;;;;;;5.68;1.60;;;;;;;;;;5029141;28;20174;-63
2022/08/21 12:36:59;;;;;;;9.40;2.47;;;;;;;;;;5014295;28;20220;-63
2022/08/21 12:39:28;;;;;;;8.15;2.20;;;;;;;;;;5025838;28;20178;-63
2022/08/21 12:42:17;;;;;;;7.90;1.65;;;;;;;;;;5029247;28;20591;-63
2022/08/21 12:44:55;;;;;;;7.63;1.90;;;;;;;;;;5012588;28;20561;-63
2022/08/21 12:47:33;;;;;;;8.35;1.90;;;;;;;;;;5024145;28;20244;-63
2022/08/21 12:50:03;;;;;;;4.03;1.30;;;;;;;;;;5021563;28;20240;-63
2022/08/21 12:52:50;;;;;;;8.77;1.95;;;;;;;;;;5024692;28;20576;-64
2022/08/21 12:55:29;;;;;;;6.50;2.00;;;;;;;;;;5018923;28;20191;-63
2022/08/21 12:57:54;;;;;;;7.22;2.00;;;;;;;;;;5027503;28;20184;-63
2022/08/21 13:00:23;;;;;;;8.63;1.63;;;;;;;;;;5025262;28;20183;-63
2022/08/21 13:02:50;;;;;;;5.47;1.50;;;;;;;;;;5027438;28;20205;-63
2022/08/21 13:05:51;;;;;;;4.70;1.83;;;;;;;;;;5019493;28;20241;-63
2022/08/21 13:08:19;;;;;;;7.72;1.58;;;;;;;;;;5020721;28;20206;-63
2022/08/21 13:10:49;;;;;;;6.88;1.83;;;;;;;;;;5015546;28;20617;-63
2022/08/21 13:13:21;;;;;;;8.27;1.80;;;;;;;;;;5027319;28;20249;-64
2022/08/21 13:15:46;;;;;;;5.60;1.88;;;;;;;;;;5028428;28;20201;-64
2022/08/21 13:18:22;;;;;;;5.70;1.63;;;;;;;;;;5028448;28;20198;-63
2022/08/21 13:20:48;;;;;;;5.25;1.73;;;;;;;;;;5016201;28;20175;-64
2022/08/21 13:23:24;;;;;;;7.95;1.83;;;;;;;;;;5022668;28;20197;-63
2022/08/21 13:25:50;;;;;;;8.13;1.67;;;;;;;;;;5018936;28;20252;-63
2022/08/21 13:28:15;;;;;;;5.40;1.70;;;;;;;;;;5029176;28;20190;-63
2022/08/21 13:30:47;;;;;;;5.55;1.90;;;;;;;;;;5031516;28;20185;-63
2022/08/21 13:33:15;;;;;;;5.45;2.00;;;;;;;;;;5034549;28;20217;-63
2022/08/21 13:35:56;;;;;;;5.50;1.65;;;;;;;;;;5029809;28;20186;-64
2022/08/21 13:38:28;;;;;;;6.45;1.73;;;;;;;;;;5031594;28;20216;-64
2022/08/21 13:40:57;;;;;;;6.30;1.80;;;;;;;;;;5027023;28;20181;-63
2022/08/21 13:43:28;;;;;;;7.60;1.65;;;;;;;;;;5032281;28;20185;-65
2022/08/21 13:45:55;;;;;;;7.20;1.70;;;;;;;;;;5024165;28;20185;-63
2022/08/21 13:48:23;;;;;;;4.38;1.70;;;;;;;;;;5040349;28;20208;-63
2022/08/21 13:50:49;;;;;;;6.70;2.33;;;;;;;;;;5024889;28;20181;-63
2022/08/21 13:53:44;;;;;;;5.55;1.52;;;;;;;;;;5031936;28;20581;-64
2022/08/21 13:56:32;;;;;;;6.63;1.85;;;;;;;;;;5024415;28;20178;-63
2022/08/21 13:58:59;;;;;;;5.93;1.55;;;;;;;;;;5026577;28;20661;-64
2022/08/21 14:01:31;;;;;;;5.50;1.80;;;;;;;;;;5018101;28;20182;-64
2022/08/21 14:04:03;;;;;;;4.68;1.52;;;;;;;;;;5032363;28;20182;-64
2022/08/21 14:06:34;;;;;;;4.32;1.77;;;;;;;;;;5021270;28;20190;-65
2022/08/21 14:09:08;;;;;;;6.57;1.50;;;;;;;;;;5033093;28;20686;-63
2022/08/21 14:11:35;;;;;;;6.22;1.67;;;;;;;;;;5020585;28;20271;-63
2022/08/21 14:14:04;;;;;;;8.48;1.77;;;;;;;;;;5031414;28;20185;-63
2022/08/21 14:16:56;;;;;;;4.22;1.40;;;;;;;;;;5020088;28;20783;-64
2022/08/21 14:19:36;;;;;;;5.82;2.22;;;;;;;;;;5031496;28;20183;-64
2022/08/21 14:22:22;;;;;;;6.85;1.80;;;;;;;;;;5019562;28;20186;-64
2022/08/21 14:24:48;;;;;;;5.38;1.75;;;;;;;;;;5029055;28;20265;-63
2022/08/21 14:27:17;;;;;;;4.03;1.42;;;;;;;;;;5020025;28;20263;-63
2022/08/21 14:29:43;;;;;;;5.63;1.50;;;;;;;;;;5028433;28;20186;-64
2022/08/21 14:32:10;;;;;;;3.58;1.60;;;;;;;;;;5036424;28;20209;-63
2022/08/21 14:34:35;;;;;;;6.13;1.88;;;;;;;;;;5024842;28;20188;-63
2022/08/21 14:37:00;;;;;;;5.65;1.63;;;;;;;;;;5030439;28;20174;-63
2022/08/21 14:39:26;;;;;;;8.85;2.17;;;;;;;;;;5029553;28;20610;-63
2022/08/21 14:41:51;;;;;;;4.55;1.52;;;;;;;;;;5026983;28;20197;-63
2022/08/21 14:44:18;;;;;;;6.18;2.22;;;;;;;;;;5029849;28;20174;-63
2022/08/21 14:46:45;;;;;;;5.78;2.17;;;;;;;;;;5015061;28;20187;-63
2022/08/21 14:49:11;;;;;;;6.68;1.90;;;;;;;;;;5026686;28;20618;-63
2022/08/21 14:51:36;;;;;;;8.95;2.47;;;;;;;;;;5025622;28;20313;-63